sensor_id;sensor_type;location;lat;lon;timestamp;pressure;altitude;pressure_sealevel;temperature
37452;BMP280;23314;51.114;6.900;2024-02-23T00:01:36;98576.94;;;8.26
37452;BMP280;23314;51.114;6.900;2024-02-23T00:04:01;98572.06;;;8.25
37452;BMP280;23314;51.114;6.900;2024-02-23T00:06:28;98583.69;;;8.18
37452;BMP280;23314;51.114;6.900;2024-02-23T00:08:54;98597.81;;;8.15
37452;BMP280;23314;51.114;6.900;2024-02-23T00:11:23;98593.53;;;8.08
37452;BMP280;23314;51.114;6.900;2024-02-23T00:13:48;98620.31;;;8.01
37452;BMP280;23314;51.114;6.900;2024-02-23T00:16:13;98612.00;;;7.90
37452;BMP280;23314;51.114;6.900;2024-02-23T00:18:39;98617.06;;;7.75
37452;BMP280;23314;51.114;6.900;2024-02-23T00:21:04;98616.06;;;7.59
37452;BMP280;23314;51.114;6.900;2024-02-23T00:23:29;98611.78;;;7.39
37452;BMP280;23314;51.114;6.900;2024-02-23T00:25:55;98620.22;;;7.25
37452;BMP280;23314;51.114;6.900;2024-02-23T00:28:21;98613.03;;;7.13
37452;BMP280;23314;51.114;6.900;2024-02-23T00:30:46;98617.19;;;7.01
37452;BMP280;23314;51.114;6.900;2024-02-23T00:33:11;98634.50;;;6.92
37452;BMP280;23314;51.114;6.900;2024-02-23T00:35:37;98632.78;;;6.86
37452;BMP280;23314;51.114;6.900;2024-02-23T00:38:02;98637.47;;;6.82
37452;BMP280;23314;51.114;6.900;2024-02-23T00:40:27;98638.00;;;6.76
37452;BMP280;23314;51.114;6.900;2024-02-23T00:42:53;98629.41;;;6.72
37452;BMP280;23314;51.114;6.900;2024-02-23T00:45:18;98638.63;;;6.68
37452;BMP280;23314;51.114;6.900;2024-02-23T00:47:43;98644.34;;;6.66
37452;BMP280;23314;51.114;6.900;2024-02-23T00:50:09;98642.03;;;6.68
37452;BMP280;23314;51.114;6.900;2024-02-23T00:52:35;98649.75;;;6.75
37452;BMP280;23314;51.114;6.900;2024-02-23T00:55:01;98652.81;;;6.74
37452;BMP280;23314;51.114;6.900;2024-02-23T00:57:26;98659.19;;;6.76
37452;BMP280;23314;51.114;6.900;2024-02-23T00:59:57;98654.28;;;6.75
37452;BMP280;23314;51.114;6.900;2024-02-23T01:02:23;98669.47;;;6.74
37452;BMP280;23314;51.114;6.900;2024-02-23T01:04:48;98672.66;;;6.69
37452;BMP280;23314;51.114;6.900;2024-02-23T01:07:13;98678.38;;;6.68
37452;BMP280;23314;51.114;6.900;2024-02-23T01:09:39;98676.56;;;6.65
37452;BMP280;23314;51.114;6.900;2024-02-23T01:12:04;98690.53;;;6.65
37452;BMP280;23314;51.114;6.900;2024-02-23T01:14:29;98695.50;;;6.63
37452;BMP280;23314;51.114;6.900;2024-02-23T01:16:55;98701.22;;;6.61
37452;BMP280;23314;51.114;6.900;2024-02-23T01:19:20;98708.84;;;6.59
37452;BMP280;23314;51.114;6.900;2024-02-23T01:21:45;98712.25;;;6.60
37452;BMP280;23314;51.114;6.900;2024-02-23T01:24:10;98703.88;;;6.61
37452;BMP280;23314;51.114;6.900;2024-02-23T01:26:36;98710.66;;;6.63
37452;BMP280;23314;51.114;6.900;2024-02-23T01:29:01;98712.16;;;6.64
37452;BMP280;23314;51.114;6.900;2024-02-23T01:31:27;98714.47;;;6.61
37452;BMP280;23314;51.114;6.900;2024-02-23T01:33:52;98714.38;;;6.65
37452;BMP280;23314;51.114;6.900;2024-02-23T01:36:17;98723.06;;;6.66
37452;BMP280;23314;51.114;6.900;2024-02-23T01:38:43;98719.28;;;6.67
37452;BMP280;23314;51.114;6.900;2024-02-23T01:41:08;98731.75;;;6.66
37452;BMP280;23314;51.114;6.900;2024-02-23T01:43:33;98727.00;;;6.61
37452;BMP280;23314;51.114;6.900;2024-02-23T01:45:59;98731.19;;;6.58
37452;BMP280;23314;51.114;6.900;2024-02-23T01:48:25;98738.41;;;6.58
37452;BMP280;23314;51.114;6.900;2024-02-23T01:50:51;98736.50;;;6.58
37452;BMP280;23314;51.114;6.900;2024-02-23T01:53:17;98744.44;;;6.58
37452;BMP280;23314;51.114;6.900;2024-02-23T01:55:45;98742.22;;;6.57
37452;BMP280;23314;51.114;6.900;2024-02-23T01:58:12;98732.34;;;6.57
37452;BMP280;23314;51.114;6.900;2024-02-23T02:00:37;98742.66;;;6.55
37452;BMP280;23314;51.114;6.900;2024-02-23T02:03:04;98749.44;;;6.56
37452;BMP280;23314;51.114;6.900;2024-02-23T02:05:30;98744.03;;;6.60
37452;BMP280;23314;51.114;6.900;2024-02-23T02:07:55;98756.03;;;6.65
37452;BMP280;23314;51.114;6.900;2024-02-23T02:10:24;98747.25;;;6.68
37452;BMP280;23314;51.114;6.900;2024-02-23T02:12:49;98749.03;;;6.71
37452;BMP280;23314;51.114;6.900;2024-02-23T02:15:15;98751.69;;;6.71
37452;BMP280;23314;51.114;6.900;2024-02-23T02:17:40;98763.75;;;6.72
37452;BMP280;23314;51.114;6.900;2024-02-23T02:20:07;98757.84;;;6.68
37452;BMP280;23314;51.114;6.900;2024-02-23T02:22:35;98768.44;;;6.68
37452;BMP280;23314;51.114;6.900;2024-02-23T02:25:01;98764.31;;;6.67
37452;BMP280;23314;51.114;6.900;2024-02-23T02:27:26;98769.25;;;6.65
37452;BMP280;23314;51.114;6.900;2024-02-23T02:29:51;98759.94;;;6.60
37452;BMP280;23314;51.114;6.900;2024-02-23T02:32:17;98764.25;;;6.54
37452;BMP280;23314;51.114;6.900;2024-02-23T02:34:42;98759.91;;;6.47
37452;BMP280;23314;51.114;6.900;2024-02-23T02:37:08;98775.44;;;6.45
37452;BMP280;23314;51.114;6.900;2024-02-23T02:39:33;98767.19;;;6.43
37452;BMP280;23314;51.114;6.900;2024-02-23T02:41:59;98777.00;;;6.42
37452;BMP280;23314;51.114;6.900;2024-02-23T02:44:24;98785.63;;;6.46
37452;BMP280;23314;51.114;6.900;2024-02-23T02:46:49;98779.16;;;6.48
37452;BMP280;23314;51.114;6.900;2024-02-23T02:49:15;98788.59;;;6.49
37452;BMP280;23314;51.114;6.900;2024-02-23T02:51:40;98787.09;;;6.48
37452;BMP280;23314;51.114;6.900;2024-02-23T02:54:06;98786.97;;;6.38
37452;BMP280;23314;51.114;6.900;2024-02-23T02:56:31;98786.97;;;6.38
37452;BMP280;23314;51.114;6.900;2024-02-23T02:58:56;98801.78;;;6.36
37452;BMP280;23314;51.114;6.900;2024-02-23T03:01:22;98801.78;;;6.36
37452;BMP280;23314;51.114;6.900;2024-02-23T03:03:47;98790.88;;;6.34
37452;BMP280;23314;51.114;6.900;2024-02-23T03:06:12;98798.41;;;6.35
37452;BMP280;23314;51.114;6.900;2024-02-23T03:08:38;98798.75;;;6.37
37452;BMP280;23314;51.114;6.900;2024-02-23T03:11:03;98808.78;;;6.42
37452;BMP280;23314;51.114;6.900;2024-02-23T03:13:28;98799.94;;;6.49
37452;BMP280;23314;51.114;6.900;2024-02-23T03:15:54;98804.19;;;6.59
37452;BMP280;23314;51.114;6.900;2024-02-23T03:18:19;98810.16;;;6.64
37452;BMP280;23314;51.114;6.900;2024-02-23T03:20:45;98802.72;;;6.58
37452;BMP280;23314;51.114;6.900;2024-02-23T03:23:11;98808.13;;;6.55
37452;BMP280;23314;51.114;6.900;2024-02-23T03:25:36;98808.66;;;6.63
37452;BMP280;23314;51.114;6.900;2024-02-23T03:28:01;98807.41;;;6.67
37452;BMP280;23314;51.114;6.900;2024-02-23T03:30:27;98811.84;;;6.70
37452;BMP280;23314;51.114;6.900;2024-02-23T03:32:52;98821.28;;;6.71
37452;BMP280;23314;51.114;6.900;2024-02-23T03:35:17;98815.69;;;6.69
37452;BMP280;23314;51.114;6.900;2024-02-23T03:37:42;98825.22;;;6.67
37452;BMP280;23314;51.114;6.900;2024-02-23T03:40:08;98824.13;;;6.64
37452;BMP280;23314;51.114;6.900;2024-02-23T03:42:35;98821.91;;;6.63
37452;BMP280;23314;51.114;6.900;2024-02-23T03:45:00;98827.72;;;6.57
37452;BMP280;23314;51.114;6.900;2024-02-23T03:47:26;98821.78;;;6.53
37452;BMP280;23314;51.114;6.900;2024-02-23T03:49:51;98827.16;;;6.50
37452;BMP280;23314;51.114;6.900;2024-02-23T03:52:16;98830.72;;;6.43
37452;BMP280;23314;51.114;6.900;2024-02-23T03:54:42;98825.94;;;6.38
37452;BMP280;23314;51.114;6.900;2024-02-23T03:57:07;98832.81;;;6.35
37452;BMP280;23314;51.114;6.900;2024-02-23T03:59:32;98834.81;;;6.31
37452;BMP280;23314;51.114;6.900;2024-02-23T04:01:58;98825.47;;;6.26
37452;BMP280;23314;51.114;6.900;2024-02-23T04:04:23;98841.34;;;6.26
37452;BMP280;23314;51.114;6.900;2024-02-23T04:06:48;98843.69;;;6.24
37452;BMP280;23314;51.114;6.900;2024-02-23T04:09:14;98840.72;;;6.22
37452;BMP280;23314;51.114;6.900;2024-02-23T04:11:39;98842.25;;;6.20
37452;BMP280;23314;51.114;6.900;2024-02-23T04:14:05;98844.00;;;6.26
37452;BMP280;23314;51.114;6.900;2024-02-23T04:16:30;98848.03;;;6.31
37452;BMP280;23314;51.114;6.900;2024-02-23T04:18:56;98845.31;;;6.35
37452;BMP280;23314;51.114;6.900;2024-02-23T04:21:21;98857.53;;;6.45
37452;BMP280;23314;51.114;6.900;2024-02-23T04:23:47;98858.13;;;6.53
37452;BMP280;23314;51.114;6.900;2024-02-23T04:26:13;98863.97;;;6.60
37452;BMP280;23314;51.114;6.900;2024-02-23T04:28:42;98877.03;;;6.68
37452;BMP280;23314;51.114;6.900;2024-02-23T04:31:08;98868.16;;;6.74
37452;BMP280;23314;51.114;6.900;2024-02-23T04:33:35;98874.75;;;6.83
37452;BMP280;23314;51.114;6.900;2024-02-23T04:36:01;98865.44;;;6.91
37452;BMP280;23314;51.114;6.900;2024-02-23T04:38:26;98869.06;;;6.97
37452;BMP280;23314;51.114;6.900;2024-02-23T04:40:51;98867.72;;;7.05
37452;BMP280;23314;51.114;6.900;2024-02-23T04:43:17;98878.53;;;7.11
37452;BMP280;23314;51.114;6.900;2024-02-23T04:45:42;98876.09;;;7.17
37452;BMP280;23314;51.114;6.900;2024-02-23T04:48:07;98882.84;;;7.21
37452;BMP280;23314;51.114;6.900;2024-02-23T04:50:33;98880.78;;;7.25
37452;BMP280;23314;51.114;6.900;2024-02-23T04:52:58;98881.03;;;7.31
37452;BMP280;23314;51.114;6.900;2024-02-23T04:55:24;98882.06;;;7.34
37452;BMP280;23314;51.114;6.900;2024-02-23T04:57:49;98879.75;;;7.36
37452;BMP280;23314;51.114;6.900;2024-02-23T05:00:14;98891.84;;;7.37
37452;BMP280;23314;51.114;6.900;2024-02-23T05:02:40;98891.41;;;7.38
37452;BMP280;23314;51.114;6.900;2024-02-23T05:05:06;98902.84;;;7.35
37452;BMP280;23314;51.114;6.900;2024-02-23T05:07:31;98891.41;;;7.38
37452;BMP280;23314;51.114;6.900;2024-02-23T05:09:58;98899.69;;;7.40
37452;BMP280;23314;51.114;6.900;2024-02-23T05:12:23;98911.38;;;7.43
37452;BMP280;23314;51.114;6.900;2024-02-23T05:14:48;98902.28;;;7.44
37452;BMP280;23314;51.114;6.900;2024-02-23T05:17:14;98904.91;;;7.44
37452;BMP280;23314;51.114;6.900;2024-02-23T05:19:39;98909.78;;;7.46
37452;BMP280;23314;51.114;6.900;2024-02-23T05:22:05;98914.25;;;7.49
37452;BMP280;23314;51.114;6.900;2024-02-23T05:24:30;98912.00;;;7.47
37452;BMP280;23314;51.114;6.900;2024-02-23T05:26:55;98909.66;;;7.49
37452;BMP280;23314;51.114;6.900;2024-02-23T05:29:24;98905.13;;;7.50
37452;BMP280;23314;51.114;6.900;2024-02-23T05:31:52;98915.28;;;7.51
37452;BMP280;23314;51.114;6.900;2024-02-23T05:34:18;98910.75;;;7.52
37452;BMP280;23314;51.114;6.900;2024-02-23T05:36:44;98910.75;;;7.52
37452;BMP280;23314;51.114;6.900;2024-02-23T05:39:11;98910.00;;;7.51
37452;BMP280;23314;51.114;6.900;2024-02-23T05:41:38;98905.84;;;7.50
37452;BMP280;23314;51.114;6.900;2024-02-23T05:44:04;98906.28;;;7.49
37452;BMP280;23314;51.114;6.900;2024-02-23T05:46:40;98907.00;;;7.49
37452;BMP280;23314;51.114;6.900;2024-02-23T05:49:05;98903.19;;;7.50
37452;BMP280;23314;51.114;6.900;2024-02-23T05:51:31;98898.66;;;7.51
37452;BMP280;23314;51.114;6.900;2024-02-23T05:53:56;98903.19;;;7.50
37452;BMP280;23314;51.114;6.900;2024-02-23T05:56:22;98904.94;;;7.57
37452;BMP280;23314;51.114;6.900;2024-02-23T05:58:49;98903.84;;;7.67
37452;BMP280;23314;51.114;6.900;2024-02-23T06:01:15;98901.97;;;7.81
37452;BMP280;23314;51.114;6.900;2024-02-23T06:03:40;98904.69;;;7.90
37452;BMP280;23314;51.114;6.900;2024-02-23T06:06:08;98899.06;;;8.01
37452;BMP280;23314;51.114;6.900;2024-02-23T06:08:34;98908.19;;;8.13
37452;BMP280;23314;51.114;6.900;2024-02-23T06:11:00;98898.50;;;8.19
37452;BMP280;23314;51.114;6.900;2024-02-23T06:13:25;98900.63;;;8.24
37452;BMP280;23314;51.114;6.900;2024-02-23T06:15:51;98893.38;;;8.25
37452;BMP280;23314;51.114;6.900;2024-02-23T06:18:16;98898.47;;;8.32
37452;BMP280;23314;51.114;6.900;2024-02-23T06:20:41;98892.19;;;8.26
37452;BMP280;23314;51.114;6.900;2024-02-23T06:23:07;98900.09;;;8.16
37452;BMP280;23314;51.114;6.900;2024-02-23T06:25:32;98899.25;;;8.07
37452;BMP280;23314;51.114;6.900;2024-02-23T06:27:58;98896.09;;;7.99
37452;BMP280;23314;51.114;6.900;2024-02-23T06:30:23;98891.31;;;7.94
37452;BMP280;23314;51.114;6.900;2024-02-23T06:32:48;98900.56;;;7.89
37452;BMP280;23314;51.114;6.900;2024-02-23T06:35:14;98897.56;;;7.87
37452;BMP280;23314;51.114;6.900;2024-02-23T06:37:39;98904.63;;;7.81
37452;BMP280;23314;51.114;6.900;2024-02-23T06:40:05;98900.66;;;7.72
37452;BMP280;23314;51.114;6.900;2024-02-23T06:42:32;98912.44;;;7.71
37452;BMP280;23314;51.114;6.900;2024-02-23T06:44:58;98909.47;;;7.69
37452;BMP280;23314;51.114;6.900;2024-02-23T06:47:23;98909.69;;;7.62
37452;BMP280;23314;51.114;6.900;2024-02-23T06:49:49;98909.16;;;7.54
37452;BMP280;23314;51.114;6.900;2024-02-23T06:52:15;98911.25;;;7.47
37452;BMP280;23314;51.114;6.900;2024-02-23T06:54:40;98905.09;;;7.37
37452;BMP280;23314;51.114;6.900;2024-02-23T06:57:05;98903.91;;;7.25
37452;BMP280;23314;51.114;6.900;2024-02-23T06:59:30;98898.47;;;7.16
37452;BMP280;23314;51.114;6.900;2024-02-23T07:01:57;98891.78;;;7.11
37452;BMP280;23314;51.114;6.900;2024-02-23T07:04:22;98890.63;;;7.12
37452;BMP280;23314;51.114;6.900;2024-02-23T07:06:48;98881.09;;;7.15
37452;BMP280;23314;51.114;6.900;2024-02-23T07:09:13;98884.41;;;7.19
37452;BMP280;23314;51.114;6.900;2024-02-23T07:11:39;98890.44;;;7.19
37452;BMP280;23314;51.114;6.900;2024-02-23T07:14:06;98893.19;;;7.16
37452;BMP280;23314;51.114;6.900;2024-02-23T07:16:32;98897.81;;;7.12
37452;BMP280;23314;51.114;6.900;2024-02-23T07:18:57;98897.63;;;7.06
37452;BMP280;23314;51.114;6.900;2024-02-23T07:21:23;98899.28;;;7.00
37452;BMP280;23314;51.114;6.900;2024-02-23T07:23:48;98907.34;;;6.96
37452;BMP280;23314;51.114;6.900;2024-02-23T07:26:13;98907.78;;;6.95
37452;BMP280;23314;51.114;6.900;2024-02-23T07:28:39;98904.25;;;6.98
37452;BMP280;23314;51.114;6.900;2024-02-23T07:31:04;98902.78;;;6.97
37452;BMP280;23314;51.114;6.900;2024-02-23T07:33:29;98896.75;;;6.96
37452;BMP280;23314;51.114;6.900;2024-02-23T07:35:55;98897.47;;;6.97
37452;BMP280;23314;51.114;6.900;2024-02-23T07:38:20;98890.59;;;6.99
37452;BMP280;23314;51.114;6.900;2024-02-23T07:40:46;98885.19;;;7.03
37452;BMP280;23314;51.114;6.900;2024-02-23T07:43:11;98899.09;;;7.07
37452;BMP280;23314;51.114;6.900;2024-02-23T07:45:37;98894.44;;;7.11
37452;BMP280;23314;51.114;6.900;2024-02-23T07:48:03;98897.75;;;7.15
37452;BMP280;23314;51.114;6.900;2024-02-23T07:50:28;98890.44;;;7.19
37452;BMP280;23314;51.114;6.900;2024-02-23T07:52:54;98892.25;;;7.35
37452;BMP280;23314;51.114;6.900;2024-02-23T07:55:19;98894.91;;;7.35
37452;BMP280;23314;51.114;6.900;2024-02-23T07:57:44;98891.41;;;7.38
37452;BMP280;23314;51.114;6.900;2024-02-23T08:00:10;98900.44;;;7.41
37452;BMP280;23314;51.114;6.900;2024-02-23T08:02:36;98903.28;;;7.47
37452;BMP280;23314;51.114;6.900;2024-02-23T08:05:01;98899.38;;;7.51
37452;BMP280;23314;51.114;6.900;2024-02-23T08:07:27;98894.00;;;7.68
37452;BMP280;23314;51.114;6.900;2024-02-23T08:09:53;98904.06;;;7.73
37452;BMP280;23314;51.114;6.900;2024-02-23T08:12:19;98912.56;;;7.94
37452;BMP280;23314;51.114;6.900;2024-02-23T08:14:44;98915.16;;;8.19
37452;BMP280;23314;51.114;6.900;2024-02-23T08:17:11;98916.59;;;8.46
37452;BMP280;23314;51.114;6.900;2024-02-23T08:19:36;98917.94;;;8.64
37452;BMP280;23314;51.114;6.900;2024-02-23T08:22:01;98922.59;;;8.82
37452;BMP280;23314;51.114;6.900;2024-02-23T08:24:27;98926.34;;;8.85
37452;BMP280;23314;51.114;6.900;2024-02-23T08:26:52;98924.28;;;8.89
37452;BMP280;23314;51.114;6.900;2024-02-23T08:29:18;98927.31;;;9.00
37452;BMP280;23314;51.114;6.900;2024-02-23T08:31:44;98919.97;;;9.04
37452;BMP280;23314;51.114;6.900;2024-02-23T08:34:09;98926.81;;;9.14
37452;BMP280;23314;51.114;6.900;2024-02-23T08:36:36;98907.81;;;9.25
37452;BMP280;23314;51.114;6.900;2024-02-23T08:39:01;98914.72;;;9.45
37452;BMP280;23314;51.114;6.900;2024-02-23T08:41:28;98912.34;;;9.56
37452;BMP280;23314;51.114;6.900;2024-02-23T08:43:53;98925.72;;;9.66
37452;BMP280;23314;51.114;6.900;2024-02-23T08:46:21;98930.56;;;9.58
37452;BMP280;23314;51.114;6.900;2024-02-23T08:48:46;98929.66;;;9.52
37452;BMP280;23314;51.114;6.900;2024-02-23T08:51:12;98931.84;;;9.44
37452;BMP280;23314;51.114;6.900;2024-02-23T08:53:37;98939.84;;;9.53
37452;BMP280;23314;51.114;6.900;2024-02-23T08:56:03;98943.03;;;9.70
37452;BMP280;23314;51.114;6.900;2024-02-23T08:58:28;98943.22;;;9.85
37452;BMP280;23314;51.114;6.900;2024-02-23T09:00:53;98941.94;;;9.99
37452;BMP280;23314;51.114;6.900;2024-02-23T09:03:18;98963.69;;;10.07
37452;BMP280;23314;51.114;6.900;2024-02-23T09:05:44;98954.53;;;10.08
37452;BMP280;23314;51.114;6.900;2024-02-23T09:08:12;98960.00;;;10.14
37452;BMP280;23314;51.114;6.900;2024-02-23T09:10:37;98966.97;;;10.20
37452;BMP280;23314;51.114;6.900;2024-02-23T09:13:02;98962.09;;;10.19
37452;BMP280;23314;51.114;6.900;2024-02-23T09:15:28;98963.88;;;10.22
37452;BMP280;23314;51.114;6.900;2024-02-23T09:17:53;98958.13;;;10.33
37452;BMP280;23314;51.114;6.900;2024-02-23T09:20:19;98968.06;;;10.51
37452;BMP280;23314;51.114;6.900;2024-02-23T09:22:44;98965.53;;;10.66
37452;BMP280;23314;51.114;6.900;2024-02-23T09:25:09;98975.47;;;10.74
37452;BMP280;23314;51.114;6.900;2024-02-23T09:27:35;98982.25;;;10.85
37452;BMP280;23314;51.114;6.900;2024-02-23T09:30:04;98971.13;;;10.96
37452;BMP280;23314;51.114;6.900;2024-02-23T09:32:29;98971.84;;;11.15
37452;BMP280;23314;51.114;6.900;2024-02-23T09:34:55;98969.72;;;11.28
37452;BMP280;23314;51.114;6.900;2024-02-23T09:37:20;98975.03;;;11.37
37452;BMP280;23314;51.114;6.900;2024-02-23T09:39:46;98970.81;;;11.55
37452;BMP280;23314;51.114;6.900;2024-02-23T09:42:11;98976.84;;;11.74
37452;BMP280;23314;51.114;6.900;2024-02-23T09:44:36;98979.88;;;11.82
37452;BMP280;23314;51.114;6.900;2024-02-23T09:47:03;98975.19;;;11.77
37452;BMP280;23314;51.114;6.900;2024-02-23T09:49:39;98979.88;;;11.82
37452;BMP280;23314;51.114;6.900;2024-02-23T09:52:07;98977.06;;;11.85
37452;BMP280;23314;51.114;6.900;2024-02-23T09:54:33;98985.53;;;11.84
37452;BMP280;23314;51.114;6.900;2024-02-23T09:57:01;98977.19;;;11.91
37452;BMP280;23314;51.114;6.900;2024-02-23T09:59:28;98977.19;;;11.91
37452;BMP280;23314;51.114;6.900;2024-02-23T10:01:56;98980.88;;;11.94
37452;BMP280;23314;51.114;6.900;2024-02-23T10:04:22;98992.75;;;11.93
37452;BMP280;23314;51.114;6.900;2024-02-23T10:06:49;98981.09;;;11.81
37452;BMP280;23314;51.114;6.900;2024-02-23T10:09:15;98981.16;;;11.71
37452;BMP280;23314;51.114;6.900;2024-02-23T10:11:40;98989.50;;;11.64
37452;BMP280;23314;51.114;6.900;2024-02-23T10:14:06;98981.78;;;11.66
37452;BMP280;23314;51.114;6.900;2024-02-23T10:16:31;98986.38;;;11.66
37452;BMP280;23314;51.114;6.900;2024-02-23T10:18:58;98992.13;;;11.73
37452;BMP280;23314;51.114;6.900;2024-02-23T10:21:23;98987.91;;;11.82
37452;BMP280;23314;51.114;6.900;2024-02-23T10:23:50;98995.88;;;11.91
37452;BMP280;23314;51.114;6.900;2024-02-23T10:26:16;98991.25;;;11.92
37452;BMP280;23314;51.114;6.900;2024-02-23T10:28:45;98993.53;;;11.84
37452;BMP280;23314;51.114;6.900;2024-02-23T10:31:11;98993.69;;;11.89
37452;BMP280;23314;51.114;6.900;2024-02-23T10:33:37;98996.31;;;12.23
37452;BMP280;23314;51.114;6.900;2024-02-23T10:36:04;98989.91;;;12.45
37452;BMP280;23314;51.114;6.900;2024-02-23T10:38:32;99001.44;;;12.51
37452;BMP280;23314;51.114;6.900;2024-02-23T10:41:00;99011.50;;;12.56
37452;BMP280;23314;51.114;6.900;2024-02-23T10:43:40;99008.25;;;12.52
37452;BMP280;23314;51.114;6.900;2024-02-23T10:46:06;99000.06;;;12.55
37452;BMP280;23314;51.114;6.900;2024-02-23T10:48:39;99006.38;;;12.67
37452;BMP280;23314;51.114;6.900;2024-02-23T10:51:05;99010.38;;;12.63
37452;BMP280;23314;51.114;6.900;2024-02-23T10:53:31;99010.09;;;12.46
37452;BMP280;23314;51.114;6.900;2024-02-23T10:55:57;99016.81;;;12.41
37452;BMP280;23314;51.114;6.900;2024-02-23T10:58:25;99015.34;;;12.40
37452;BMP280;23314;51.114;6.900;2024-02-23T11:00:51;99011.00;;;12.43
37452;BMP280;23314;51.114;6.900;2024-02-23T11:03:16;99011.41;;;12.50
37452;BMP280;23314;51.114;6.900;2024-02-23T11:05:42;99012.72;;;12.55
37452;BMP280;23314;51.114;6.900;2024-02-23T11:08:08;99010.59;;;12.59
37452;BMP280;23314;51.114;6.900;2024-02-23T11:10:48;99009.75;;;12.53
37452;BMP280;23314;51.114;6.900;2024-02-23T11:13:15;99006.38;;;12.43
37452;BMP280;23314;51.114;6.900;2024-02-23T11:15:42;99012.44;;;12.29
37452;BMP280;23314;51.114;6.900;2024-02-23T11:18:27;99010.91;;;12.13
37452;BMP280;23314;51.114;6.900;2024-02-23T11:20:58;99004.25;;;12.08
37452;BMP280;23314;51.114;6.900;2024-02-23T11:23:23;99000.41;;;12.09
37452;BMP280;23314;51.114;6.900;2024-02-23T11:26:04;99003.81;;;12.10
37452;BMP280;23314;51.114;6.900;2024-02-23T11:28:31;99000.47;;;12.24
37452;BMP280;23314;51.114;6.900;2024-02-23T11:30:57;99000.69;;;12.50
37452;BMP280;23314;51.114;6.900;2024-02-23T11:33:27;99002.81;;;12.46
37452;BMP280;23314;51.114;6.900;2024-02-23T11:35:53;99008.00;;;12.26
37452;BMP280;23314;51.114;6.900;2024-02-23T11:38:21;99002.31;;;12.09
37452;BMP280;23314;51.114;6.900;2024-02-23T11:40:49;98998.47;;;12.10
37452;BMP280;23314;51.114;6.900;2024-02-23T11:43:17;99001.09;;;12.19
37452;BMP280;23314;51.114;6.900;2024-02-23T11:45:46;98998.50;;;12.25
37452;BMP280;23314;51.114;6.900;2024-02-23T11:48:12;99014.88;;;12.17
37452;BMP280;23314;51.114;6.900;2024-02-23T11:50:37;99001.44;;;12.12
37452;BMP280;23314;51.114;6.900;2024-02-23T11:53:02;99003.91;;;12.15
37452;BMP280;23314;51.114;6.900;2024-02-23T11:55:29;98998.91;;;12.08
37452;BMP280;23314;51.114;6.900;2024-02-23T11:57:54;99006.56;;;12.15
37452;BMP280;23314;51.114;6.900;2024-02-23T12:00:20;98998.84;;;12.17
37452;BMP280;23314;51.114;6.900;2024-02-23T12:02:45;98996.00;;;12.21
37452;BMP280;23314;51.114;6.900;2024-02-23T12:05:14;98985.66;;;12.14
37452;BMP280;23314;51.114;6.900;2024-02-23T12:07:40;98990.44;;;12.10
37452;BMP280;23314;51.114;6.900;2024-02-23T12:10:06;98985.06;;;12.19
37452;BMP280;23314;51.114;6.900;2024-02-23T12:12:32;98993.78;;;12.19
37452;BMP280;23314;51.114;6.900;2024-02-23T12:14:57;98995.84;;;12.25
37452;BMP280;23314;51.114;6.900;2024-02-23T12:17:24;98994.81;;;12.22
37452;BMP280;23314;51.114;6.900;2024-02-23T12:19:58;99001.59;;;12.08
37452;BMP280;23314;51.114;6.900;2024-02-23T12:22:24;98992.72;;;12.02
37452;BMP280;23314;51.114;6.900;2024-02-23T12:24:50;98991.41;;;11.97
37452;BMP280;23314;51.114;6.900;2024-02-23T12:27:18;99003.44;;;11.93
37452;BMP280;23314;51.114;6.900;2024-02-23T12:29:54;99006.56;;;11.91
37452;BMP280;23314;51.114;6.900;2024-02-23T12:32:22;98994.00;;;11.82
37452;BMP280;23314;51.114;6.900;2024-02-23T12:34:48;99003.81;;;11.76
37452;BMP280;23314;51.114;6.900;2024-02-23T12:37:17;99006.06;;;11.68
37452;BMP280;23314;51.114;6.900;2024-02-23T12:39:43;99006.06;;;11.68
37452;BMP280;23314;51.114;6.900;2024-02-23T12:42:08;98997.69;;;11.85
37452;BMP280;23314;51.114;6.900;2024-02-23T12:44:34;98988.41;;;12.04
37452;BMP280;23314;51.114;6.900;2024-02-23T12:47:00;98994.25;;;12.18
37452;BMP280;23314;51.114;6.900;2024-02-23T12:49:25;98991.16;;;12.34
37452;BMP280;23314;51.114;6.900;2024-02-23T12:51:51;99000.91;;;12.47
37452;BMP280;23314;51.114;6.900;2024-02-23T12:54:16;98995.19;;;12.54
37452;BMP280;23314;51.114;6.900;2024-02-23T12:56:42;98999.78;;;12.53
37452;BMP280;23314;51.114;6.900;2024-02-23T12:59:07;99001.66;;;12.62
37452;BMP280;23314;51.114;6.900;2024-02-23T13:01:35;98996.13;;;12.66
37452;BMP280;23314;51.114;6.900;2024-02-23T13:04:05;99008.13;;;12.70
37452;BMP280;23314;51.114;6.900;2024-02-23T13:06:37;98999.19;;;12.74
37452;BMP280;23314;51.114;6.900;2024-02-23T13:09:04;99002.78;;;12.85
37452;BMP280;23314;51.114;6.900;2024-02-23T13:11:30;99002.50;;;12.98
37452;BMP280;23314;51.114;6.900;2024-02-23T13:13:56;99001.13;;;13.18
37452;BMP280;23314;51.114;6.900;2024-02-23T13:16:21;98990.41;;;13.18
37452;BMP280;23314;51.114;6.900;2024-02-23T13:18:47;99001.31;;;13.14
37452;BMP280;23314;51.114;6.900;2024-02-23T13:21:13;99001.59;;;13.16
37452;BMP280;23314;51.114;6.900;2024-02-23T13:23:38;99000.28;;;13.27
37452;BMP280;23314;51.114;6.900;2024-02-23T13:26:04;99000.72;;;13.25
37452;BMP280;23314;51.114;6.900;2024-02-23T13:28:30;98999.75;;;13.23
37452;BMP280;23314;51.114;6.900;2024-02-23T13:30:55;98998.06;;;13.25
37452;BMP280;23314;51.114;6.900;2024-02-23T13:33:20;98996.34;;;13.22
37452;BMP280;23314;51.114;6.900;2024-02-23T13:35:47;98992.84;;;13.16
37452;BMP280;23314;51.114;6.900;2024-02-23T13:38:13;98997.63;;;12.97
37452;BMP280;23314;51.114;6.900;2024-02-23T13:40:38;98995.56;;;12.92
37452;BMP280;23314;51.114;6.900;2024-02-23T13:43:04;98991.63;;;12.87
37452;BMP280;23314;51.114;6.900;2024-02-23T13:45:29;98991.69;;;12.78
37452;BMP280;23314;51.114;6.900;2024-02-23T13:48:00;98987.00;;;12.87
37452;BMP280;23314;51.114;6.900;2024-02-23T13:50:26;98990.44;;;12.88
37452;BMP280;23314;51.114;6.900;2024-02-23T13:52:52;98991.84;;;12.83
37452;BMP280;23314;51.114;6.900;2024-02-23T13:55:18;98993.16;;;12.79
37452;BMP280;23314;51.114;6.900;2024-02-23T13:57:46;98988.56;;;12.79
37452;BMP280;23314;51.114;6.900;2024-02-23T14:00:12;98998.81;;;12.81
37452;BMP280;23314;51.114;6.900;2024-02-23T14:02:38;98992.25;;;12.82
37452;BMP280;23314;51.114;6.900;2024-02-23T14:05:06;98990.41;;;12.73
37452;BMP280;23314;51.114;6.900;2024-02-23T14:07:34;98992.75;;;12.56
37452;BMP280;23314;51.114;6.900;2024-02-23T14:10:00;98993.31;;;12.45